Airfield :
LOGIN :

Register | Disclaimer

   EN    FR    IT 

 










Legend :    VFR   Marginal VFR   IFR   Intensive IFR   Very Intensive IFR
Visi :
Ceiling :
>= 8 km
>= 3000ft
5 to 8 km
1000 to 3000 ft
1500m to 5 km
500 to 1000 ft
800 to 1500m
200 to 500 ft
< 800m
< 200 ft
Symbols :   Thunderstorms  Fog  Heavy snow  Heavy precipitations  Wind > 20 kt
SIGMETs :     Misc.  Thunderstorms  Icing  Turbulence  Mountain Waves  Volcanic Ashes






- Airport Elevation : 637 ft
- IATA code : MVQ


UMOO - Mogilev

CURRENT METAR :
  • 051000Z 32008G12MPS 9999 BKN037 08/M04 Q1030 NOSIG

EXPIRED METARs :
  • 050900Z 28007G10MPS 9999 BKN032 07/M02 Q1030 NOSIG
  • 050800Z 30005G08MPS 9999 FEW026 06/M01 Q1030 NOSIG

TAF TAF UMOO
Valid from the 05 at 09:00 until the 05 at 18:00 UTC


050806Z 0509/0518 30006G11MPS 9999 BKN020
TEMPO 0509/0515 33008G13MPS
BECMG 0516/0518 28005MPS



MET'MAP, your aeronautical weather chart ! - Copyright ORBIFLY December 2007 - Disclaimer

ORBIFLY MET'MAP TEAM :

Programming & Development : Alexandra Zaïnal
Concept & original design : Baudouin d'Aumeries
Assistance for programming : Marc-Olivier Méhu
Technical & hardware support : Manuel Goepfert

Contact : metmap@orbifly.com




SOURCES & CREDITS :

   NOAA